• Join FlightAware (Why Join?)
  • Login
  • US Flag 
04:22PM EDT


 

Airport Tracker/Info


-or-


 

Live Flight TrackerFlight Track Log ✈ N1926Y ✈ 14-Jul-2013 ✈ KCDW - 44N

Flight Track Log - Related Links

Times and Time Zones

All times are in EDT time to prevent confusion due to time zone crossing. See the N1926Y flight status page for this flight to view local times or setup timezone preferences in your user account.

Time Position Orientation Groundspeed Altitude Reporting Facility
EDT Latitude Longitude Course Direction KTS MPH feet Rate Location/Type
07:39AM 40.8500 -74.2833 180° South 79 91 1,100  Level New York TRACON
07:40AM 40.8333 -74.2833 180° South 80 92 1,700 540 Climbing New York TRACON
07:41AM 40.8000 -74.2833 180° South 90 104 2,300 480 Climbing New York TRACON
07:42AM 40.8167 -74.3000 323° Northwest 86 99 2,700 420 Climbing New York TRACON
07:43AM 40.8333 -74.3333 303° West 99 114 3,200 360 Climbing New York TRACON
07:44AM 40.8667 -74.3500 339° North 105 121 3,500 300 Climbing New York TRACON
07:45AM 40.8833 -74.3667 323° Northwest 110 127 3,900 240 Climbing New York TRACON
07:46AM 40.9167 -74.3500 21° North 125 144 4,000  Climbing New York TRACON
07:47AM 40.9667 -74.3500 360° North 133 153 4,000  Level New York TRACON
07:48AM 41.0000 -74.3500 360° North 136 157 4,000  Level New York TRACON
07:49AM 41.0333 -74.3500 360° North 136 157 4,000  Level New York TRACON
07:50AM 41.0667 -74.3500 360° North 138 159 4,000  Level New York TRACON
07:51AM 41.1000 -74.3333 21° North 140 161 4,000  Level New York TRACON
07:52AM 41.1333 -74.3000 37° Northeast 145 167 4,000  Level New York TRACON
07:53AM 41.1667 -74.2667 37° Northeast 143 165 4,000  Level New York TRACON
07:54AM 41.2000 -74.2333 37° Northeast 143 165 4,000  Level New York TRACON
07:55AM 41.2333 -74.2167 21° North 140 161 4,000  Level New York TRACON
07:56AM 41.2667 -74.1833 37° Northeast 139 160 4,000  Level New York TRACON
07:57AM 41.2833 -74.1500 56° Northeast 140 161 4,000  Level New York TRACON
07:58AM 41.3167 -74.1167 37° Northeast 138 159 4,000  Level New York TRACON
07:59AM 41.3500 -74.1000 21° North 139 160 4,000  Level New York TRACON
08:00AM 41.3833 -74.0667 37° Northeast 139 160 4,000  Level New York TRACON
08:01AM 41.4167 -74.0167 48° Northeast 144 166 4,000  Level New York TRACON
08:02AM 41.4167 -73.9833 90° East 145 167 4,000  Level New York TRACON
08:03AM 41.4333 -73.9167 72° East 147 169 4,000  Level New York TRACON
08:04AM 41.4500 -73.8667 66° East 147 169 4,000  Level New York TRACON
08:05AM 41.4500 -73.8167 90° East 145 167 4,000 -240 Level New York TRACON
08:06AM 41.4667 -73.7667 66° East 130 150 3,500 -540 Descending New York TRACON
08:07AM 41.4833 -73.7333 56° Northeast 124 143 3,000 -300 Descending New York TRACON
08:08AM 41.5000 -73.6833 66° East 133 153 3,000  Level New York TRACON
08:09AM 41.5333 -73.6500 37° Northeast 139 160 3,000 -120 Level New York TRACON
08:10AM 41.5500 -73.6333 37° Northeast 133 153 2,800 -300 Descending New York TRACON
08:11AM 41.5833 -73.6500 339° North 118 136 2,400 -240 Descending New York TRACON
08:12AM 41.6167 -73.6667 340° North 100 115 2,400  Level New York TRACON
08:13AM 41.6333 -73.6833 323° Northwest 100 115 2,500 -300 Climbing New York TRACON
08:14AM 41.6500 -73.7000 323° Northwest 95 109 1,900 -600 Descending New York TRACON
08:15AM 41.6833 -73.7167 340° North 88 101 1,400 -60 Descending New York TRACON
08:16AM 41.7000 -73.7333 323° Northwest 86 99 1,800 420 Climbing New York TRACON
08:17AM 41.7167 -73.7500 323° Northwest 87 100 2,300 540 Climbing New York TRACON
08:18AM 41.7333 -73.7667 323° Northwest 91 105 2,900 360 Climbing New York TRACON
08:19AM 41.7167 -73.8000 236° Southwest 113 130 3,100 360 Climbing New York TRACON
08:20AM 41.7000 -73.8333 236° Southwest 106 122 3,700 420 Climbing New York TRACON
08:21AM 41.6833 -73.8667 236° Southwest 108 124 4,000 120 Climbing New York TRACON
08:22AM 41.6667 -73.9000 236° Southwest 122 140 4,000  Level New York TRACON
08:23AM 41.6333 -73.9333 217° Southwest 124 143 4,000  Level New York TRACON
08:24AM 41.6167 -73.9667 236° Southwest 127 146 4,000  Level New York TRACON
08:25AM 41.6000 -73.9833 217° Southwest 127 146 4,000  Level New York TRACON
08:26AM 41.5667 -74.0333 228° Southwest 127 146 4,000  Level New York TRACON
08:27AM 41.5333 -74.0500 201° Southwest 124 143 4,000  Level New York TRACON
08:28AM 41.5000 -74.0833 217° Southwest 119 137 4,000  Level New York TRACON
08:29AM 41.4833 -74.1000 217° Southwest 111 128 4,000  Level New York TRACON
08:30AM 41.4500 -74.1167 201° Southwest 123 142 4,000  Level New York TRACON
08:31AM 41.4167 -74.1167 180° South 131 151 4,000  Level New York TRACON
08:32AM 41.3833 -74.1333 201° Southwest 128 147 4,000  Level New York TRACON
08:33AM 41.3500 -74.1500 201° Southwest 130 150 4,000  Level New York TRACON
08:34AM 41.3167 -74.1500 180° South 132 152 4,000  Level New York TRACON
08:35AM 41.2833 -74.1500 180° South 134 154 4,000 -300 Level New York TRACON
08:36AM 41.2333 -74.1500 180° South 139 160 3,500 -480 Descending New York TRACON
08:37AM 41.2000 -74.1500 180° South 138 159 3,100 -240 Descending New York TRACON
08:38AM 41.1667 -74.1500 180° South 131 151 3,000 -60 Descending New York TRACON
08:39AM 41.1167 -74.1500 180° South 134 154 3,000  Level New York TRACON
08:40AM 41.0833 -74.1500 180° South 133 153 3,000 -120 Level New York TRACON
08:41AM 41.0500 -74.1500 180° South 133 153 2,800 -300 Descending New York TRACON
08:42AM 41.0167 -74.1833 217° Southwest 133 153 2,400 -360 Descending New York TRACON
08:43AM 40.9833 -74.2000 201° Southwest 100 115 2,100 -240 Descending New York TRACON
08:44AM 40.9667 -74.2167 217° Southwest 84 97 2,000 -120 Descending New York TRACON
08:45AM 40.9500 -74.2333 217° Southwest 93 107 1,900 -360 Descending New York TRACON
08:46AM 40.9333 -74.2500 217° Southwest 87 100 1,300 -480 Descending New York TRACON
08:47AM 40.9000 -74.2500 180° South 80 92 1,000 -300 Descending New York TRACON
08:49AM 40.9407 -74.2246 25° Northeast  Level Estimated
08:56AM 41.1744 -74.0776 25° Northeast  Level Estimated
08:57AM 41.2078 -74.0565 25° Northeast  Level Estimated
08:58AM 41.2412 -74.0354 25° Northeast  Level Estimated
08:59AM 41.2745 -74.0143 25° Northeast  Level Estimated
09:00AM 41.3079 -73.9931 25° Northeast  Level Estimated
09:01AM 41.3413 -73.9719 25° Northeast  Level Estimated
09:02AM 41.3746 -73.9508 25° Northeast  Level Estimated
09:03AM 41.4080 -73.9296 25° Northeast  Level Estimated
09:04AM 41.4413 -73.9083 26° Northeast  Level Estimated
09:05AM 41.4747 -73.8870 26° Northeast  Level Estimated
09:06AM 41.5080 -73.8658 26° Northeast  Level Estimated
09:07AM 41.5414 -73.8445 26° Northeast  Level Estimated
09:08AM 41.5747 -73.8232 26° Northeast  Level Estimated
09:09AM 41.6080 -73.8018 26° Northeast  Level Estimated
09:10AM 41.6414 -73.7804 26° Northeast  Level Estimated
09:11AM 41.6747 -73.7590 26° Northeast  Level Estimated
09:12AM 41.7074 -73.7380 26° Northeast  Level Estimated
09:13AM 41.7074 -73.7380 154° Southeast  Level Estimated
09:14AM 41.7074 -73.7380 154° Southeast  Level Estimated
09:15AM 41.7074 -73.7380 154° Southeast  Level Estimated
09:16AM 41.7074 -73.7380 154° Southeast  Level Estimated
09:17AM 41.7074 -73.7380 154° Southeast  Level Estimated
09:18AM 41.7074 -73.7380 154° Southeast  Level Estimated